createdAt,value
2018-09-08T10:38:31.305Z,5496.00
2018-09-08T10:39:31.193Z,5396.00
2018-09-08T10:41:24.489Z,5324.00
2018-09-08T10:42:24.424Z,5272.00
2018-09-08T10:43:24.369Z,5244.00
2018-09-08T10:44:24.313Z,5184.00
2018-09-08T10:45:24.263Z,5284.00
2018-09-08T10:46:24.215Z,5280.00
2018-09-08T10:47:24.162Z,5244.00
2018-09-08T10:48:24.108Z,5196.00
2018-09-08T10:49:24.057Z,5136.00
2018-09-08T10:50:24.021Z,5116.00
2018-09-08T10:51:23.965Z,5136.00
2018-09-08T10:52:23.907Z,5332.00
2018-09-08T10:53:23.854Z,5608.00
2018-09-08T10:54:23.807Z,5872.00
2018-09-08T10:55:23.775Z,6152.00
2018-09-08T10:56:23.702Z,6040.00
2018-09-08T10:57:23.666Z,6016.00
2018-09-08T10:58:23.604Z,5816.00
2018-09-08T10:59:23.555Z,5848.00
2018-09-08T11:00:23.508Z,5940.00
2018-09-08T11:01:23.500Z,5800.00
2018-09-08T11:02:23.576Z,5680.00
2018-09-08T11:03:23.369Z,5696.00
2018-09-08T11:04:23.315Z,5700.00
2018-09-08T11:05:23.263Z,5636.00
2018-09-08T11:06:23.215Z,5572.00
2018-09-08T11:07:23.167Z,5588.00
2018-09-08T11:08:23.132Z,5712.00
2018-09-08T11:09:23.071Z,5884.00
2018-09-08T11:10:23.027Z,6064.00
2018-09-08T11:11:22.976Z,6024.00
2018-09-08T11:12:22.926Z,6072.00
2018-09-08T11:13:22.878Z,5824.00
2018-09-08T11:14:22.832Z,5720.00
2018-09-08T11:15:22.789Z,5556.00
2018-09-08T11:16:22.738Z,5396.00
2018-09-08T11:17:22.694Z,5184.00
2018-09-08T11:18:22.643Z,5088.00
2018-09-08T11:19:22.596Z,5072.00
2018-09-08T11:20:22.554Z,4928.00
2018-09-08T11:21:22.510Z,4884.00
2018-09-08T11:22:22.452Z,4856.00
2018-09-08T11:23:22.406Z,4904.00
2018-09-08T11:24:22.359Z,4936.00
2018-09-08T11:25:22.359Z,4936.00
2018-09-08T11:26:22.268Z,4872.00
2018-09-08T11:27:22.232Z,4736.00
2018-09-08T11:28:22.177Z,4700.00
2018-09-08T11:29:22.124Z,4716.00
2018-09-08T11:30:22.078Z,4596.00
2018-09-08T11:31:22.032Z,4636.00
2018-09-08T11:32:21.988Z,4536.00
2018-09-08T11:33:21.936Z,4512.00
2018-09-08T11:34:21.889Z,4496.00
2018-09-08T11:35:21.850Z,4584.00
2018-09-08T11:36:21.797Z,4668.00
2018-09-08T11:37:21.757Z,4616.00
2018-09-08T11:38:21.813Z,4676.00
2018-09-08T11:39:21.656Z,4720.00
2018-09-08T11:40:21.613Z,4716.00
2018-09-08T11:41:21.578Z,4696.00
2018-09-08T11:42:21.519Z,4664.00
2018-09-08T11:43:21.476Z,4624.00
2018-09-08T11:44:21.425Z,4608.00
2018-09-08T11:45:21.378Z,4560.00
2018-09-08T11:46:21.331Z,4484.00
2018-09-08T11:47:21.299Z,4428.00
2018-09-08T11:48:21.241Z,4336.00
2018-09-08T11:49:21.212Z,4196.00
2018-09-08T11:50:21.151Z,4168.00
2018-09-08T11:51:21.233Z,4076.00
2018-09-08T11:52:21.059Z,4024.00
2018-09-08T11:53:21.012Z,4032.00
2018-09-08T11:54:20.962Z,4028.00
2018-09-08T11:55:20.916Z,4020.00
2018-09-08T11:56:20.873Z,4000.00
2018-09-08T11:57:20.822Z,4000.00
2018-09-08T11:58:20.777Z,3948.00
2018-09-08T11:59:20.730Z,3968.00
2018-09-08T12:00:20.684Z,3932.00
2018-09-08T12:01:20.643Z,3900.00
2018-09-08T12:02:20.620Z,3916.00
2018-09-08T12:03:20.545Z,3932.00
2018-09-08T12:04:20.503Z,3908.00
2018-09-08T12:05:20.455Z,3740.00
2018-09-08T12:06:20.446Z,3772.00
2018-09-08T12:07:20.362Z,3860.00
2018-09-08T12:08:20.324Z,3884.00
2018-09-08T12:09:20.268Z,3928.00
2018-09-08T12:10:20.220Z,3900.00
2018-09-08T12:11:20.175Z,3884.00
2018-09-08T12:12:20.130Z,3892.00
2018-09-08T12:13:20.082Z,3896.00
2018-09-08T12:14:20.591Z,3864.00
2018-09-08T12:15:19.990Z,3824.00
2018-09-08T12:16:19.945Z,3800.00
2018-09-08T12:17:19.900Z,3692.00
2018-09-08T12:18:19.858Z,3744.00
2018-09-08T12:19:19.807Z,3712.00
2018-09-08T12:20:19.760Z,3632.00
2018-09-08T12:21:19.713Z,3708.00
2018-09-08T12:22:19.767Z,3744.00
2018-09-08T12:23:19.647Z,3736.00
2018-09-08T12:24:19.584Z,3800.00
2018-09-08T12:25:19.531Z,3824.00
2018-09-08T12:26:19.483Z,3876.00
2018-09-08T12:27:19.436Z,3716.00
2018-09-08T12:28:19.395Z,3976.00
2018-09-08T12:29:19.346Z,4008.00
2018-09-08T12:30:19.349Z,4132.00
2018-09-08T12:31:19.261Z,4248.00
2018-09-08T12:32:19.213Z,4320.00
2018-09-08T12:33:19.160Z,4424.00
2018-09-08T12:34:19.116Z,4504.00
2018-09-08T12:35:19.072Z,4600.00
2018-09-08T12:36:19.024Z,4652.00
2018-09-08T12:37:19.037Z,4696.00
2018-09-08T12:38:18.931Z,4680.00
2018-09-08T12:39:18.893Z,4576.00
2018-09-08T12:40:18.840Z,4424.00
2018-09-08T12:41:18.794Z,4252.00
2018-09-08T12:42:18.751Z,4008.00
2018-09-08T12:43:18.703Z,3876.00
2018-09-08T12:44:18.655Z,3756.00
2018-09-08T12:45:18.609Z,3680.00
2018-09-08T12:46:18.564Z,3656.00
2018-09-08T12:47:18.519Z,3632.00
2018-09-08T12:48:18.474Z,3616.00
2018-09-08T12:49:18.425Z,3608.00
2018-09-08T12:50:18.381Z,3616.00
2018-09-08T12:51:18.335Z,3500.00
2018-09-08T12:52:18.292Z,3564.00
2018-09-08T12:53:18.285Z,3544.00
2018-09-08T12:54:18.199Z,3528.00
2018-09-08T12:55:18.153Z,3528.00
2018-09-08T12:56:18.108Z,3508.00
2018-09-08T12:57:18.061Z,3516.00
2018-09-08T12:58:18.017Z,3488.00
2018-09-08T12:59:18.026Z,3500.00
2018-09-08T13:00:17.925Z,3508.00
2018-09-08T13:01:17.878Z,3468.00
2018-09-08T13:02:17.834Z,3544.00
2018-09-08T13:03:17.796Z,3600.00
2018-09-08T13:04:17.743Z,3604.00
2018-09-08T13:05:17.701Z,3592.00
2018-09-08T13:06:17.651Z,3572.00
2018-09-08T13:07:17.606Z,3520.00
2018-09-08T13:08:17.561Z,3492.00
2018-09-08T13:09:17.517Z,3420.00
2018-09-08T13:10:17.471Z,3328.00
2018-09-08T13:11:17.424Z,3236.00
2018-09-08T13:12:17.378Z,3148.00
2018-09-08T13:13:17.332Z,3056.00
2018-09-08T13:14:17.296Z,3000.00
2018-09-08T13:15:17.243Z,2932.00
2018-09-08T13:16:17.199Z,2896.00
2018-09-08T13:17:17.152Z,2844.00
2018-09-08T13:18:17.106Z,2800.00
2018-09-08T13:19:17.061Z,2780.00
2018-09-08T13:20:17.021Z,2776.00
2018-09-08T13:21:16.969Z,2792.00
2018-09-08T13:22:16.923Z,2768.00
2018-09-08T13:23:16.879Z,2692.00
2018-09-08T13:24:16.833Z,2652.00
2018-09-08T13:25:16.788Z,2308.00
2018-09-08T13:26:16.743Z,2148.00
2018-09-08T13:27:16.702Z,1992.00
2018-09-08T13:28:16.654Z,2004.00
2018-09-08T13:29:16.605Z,2148.00
2018-09-08T13:30:16.561Z,3684.00
2018-09-08T13:31:16.515Z,2452.00
2018-09-08T13:32:16.470Z,1852.00
2018-09-08T13:33:16.423Z,2072.00
2018-09-08T13:34:16.382Z,2572.00
2018-09-08T13:35:16.336Z,2568.00
2018-09-08T13:36:16.288Z,2592.00
2018-09-08T13:37:16.243Z,2328.00
2018-09-08T13:38:16.201Z,2428.00
2018-09-08T13:39:16.153Z,2652.00
2018-09-08T13:40:16.108Z,2716.00
2018-09-08T13:41:16.060Z,2920.00
2018-09-08T13:42:16.015Z,2624.00
2018-09-08T13:43:15.970Z,2136.00
2018-09-08T13:44:15.925Z,2012.00
2018-09-08T13:45:15.884Z,2780.00
2018-09-08T13:46:15.835Z,2876.00
2018-09-08T13:47:15.820Z,2876.00
2018-09-08T13:48:15.741Z,2692.00
2018-09-08T13:49:15.695Z,2208.00
2018-09-08T13:50:15.650Z,2376.00
2018-09-08T13:51:15.607Z,2532.00
2018-09-08T13:52:15.564Z,2504.00
2018-09-08T13:53:15.515Z,2240.00
2018-09-08T13:54:15.468Z,2120.00
2018-09-08T13:55:15.424Z,2348.00
2018-09-08T13:56:15.378Z,2704.00
2018-09-08T13:57:15.384Z,2584.00
2018-09-08T13:58:15.337Z,2496.00
2018-09-08T13:59:15.253Z,2492.00
2018-09-08T14:00:15.257Z,2516.00
2018-09-08T14:01:16.117Z,2180.00
2018-09-08T14:02:15.251Z,2020.00
2018-09-08T14:03:15.090Z,1860.00
2018-09-08T14:04:15.216Z,1888.00
2018-09-08T14:05:14.973Z,2584.00
2018-09-08T14:06:14.954Z,2820.00
2018-09-08T14:07:14.874Z,2700.00
2018-09-08T14:08:14.828Z,2608.00
2018-09-08T14:09:14.783Z,2464.00
2018-09-08T14:10:14.741Z,2256.00
2018-09-08T14:11:14.693Z,2036.00
2018-09-08T14:12:14.646Z,1884.00
2018-09-08T14:13:14.600Z,2052.00
2018-09-08T14:14:14.555Z,2044.00
2018-09-08T14:15:14.519Z,2008.00
2018-09-08T14:16:14.463Z,1972.00
2018-09-08T14:17:14.417Z,1928.00
2018-09-08T14:18:14.376Z,1892.00
2018-09-08T14:19:14.325Z,1884.00
2018-09-08T14:20:14.280Z,1868.00
2018-09-08T14:21:14.257Z,1844.00
2018-09-08T14:22:14.195Z,1816.00
2018-09-08T14:23:14.142Z,1800.00
2018-09-08T14:24:14.097Z,1768.00
2018-09-08T14:25:14.071Z,1744.00
2018-09-08T14:26:14.004Z,1712.00
2018-09-08T14:27:13.959Z,1640.00
2018-09-08T14:28:13.995Z,1704.00
2018-09-08T14:29:13.869Z,1744.00
2018-09-08T14:30:13.823Z,1736.00
2018-09-08T14:31:13.917Z,1732.00
2018-09-08T14:32:13.732Z,1744.00
2018-09-08T14:33:13.695Z,1748.00
2018-09-08T14:34:13.637Z,1748.00
2018-09-08T14:35:13.592Z,1744.00
2018-09-08T14:36:13.553Z,1728.00
2018-09-08T14:37:13.500Z,1716.00
2018-09-08T14:38:13.454Z,1700.00
2018-09-08T14:39:13.410Z,1684.00
2018-09-08T14:40:13.363Z,1664.00
2018-09-08T14:41:13.316Z,1652.00
2018-09-08T14:42:13.271Z,1636.00
2018-09-08T14:43:13.228Z,1620.00
2018-09-08T14:44:13.180Z,1600.00
2018-09-08T14:45:13.133Z,1588.00
2018-09-08T14:46:13.088Z,1572.00
2018-09-08T14:47:13.747Z,1556.00
2018-09-08T14:48:13.006Z,1536.00
2018-09-08T14:49:12.948Z,1512.00
2018-09-08T14:50:12.906Z,1496.00
2018-09-08T14:51:12.879Z,1472.00
2018-09-08T14:52:12.814Z,1452.00
2018-09-08T14:53:12.766Z,1424.00
2018-09-08T14:54:12.719Z,1392.00
2018-09-08T14:55:12.677Z,1368.00
2018-09-08T14:56:12.628Z,1344.00
2018-09-08T14:57:12.655Z,1324.00
2018-09-08T14:58:12.546Z,1304.00
2018-09-08T14:59:12.491Z,1280.00
2018-09-08T15:00:12.447Z,1256.00
2018-09-08T15:01:12.400Z,1232.00
2018-09-08T15:02:12.354Z,1200.00
2018-09-08T15:03:12.340Z,1168.00
2018-09-08T15:04:12.261Z,1136.00
2018-09-08T15:05:12.324Z,1104.00
2018-09-08T15:06:12.169Z,1084.00
2018-09-08T15:07:12.149Z,1064.00
2018-09-08T15:08:12.098Z,1032.00
2018-09-08T15:09:12.032Z,1008.00
2018-09-08T15:10:11.984Z,988.00
2018-09-08T15:11:11.942Z,964.00
2018-09-08T15:12:11.893Z,940.00
2018-09-08T15:13:11.845Z,912.00
2018-09-08T15:14:11.800Z,884.00
2018-09-08T15:15:11.756Z,860.00
2018-09-08T15:16:11.714Z,840.00
2018-09-08T15:17:11.669Z,824.00
2018-09-08T15:18:11.615Z,808.00
2018-09-08T15:19:11.570Z,792.00
2018-09-08T15:20:11.523Z,784.00
2018-09-08T15:21:11.477Z,772.00
2018-09-08T15:22:11.435Z,764.00
2018-09-08T15:23:11.474Z,752.00
2018-09-08T15:24:11.354Z,740.00
2018-09-08T15:25:11.294Z,728.00
2018-09-08T15:26:11.281Z,728.00
2018-09-08T15:27:11.354Z,720.00
2018-09-08T15:28:11.305Z,704.00
2018-09-08T15:29:11.209Z,688.00
2018-09-08T15:30:11.125Z,676.00
2018-09-08T15:31:11.016Z,668.00
2018-09-08T15:32:10.972Z,652.00
2018-09-08T15:33:10.922Z,636.00
2018-09-08T15:34:10.877Z,636.00
2018-09-08T15:35:10.830Z,628.00
2018-09-08T15:36:10.785Z,620.00
2018-09-08T15:37:10.738Z,624.00
2018-09-08T15:38:10.694Z,620.00
2018-09-08T15:39:10.644Z,612.00
2018-09-08T15:40:10.653Z,600.00
2018-09-08T15:41:10.552Z,560.00
2018-09-08T15:42:10.505Z,560.00
2018-09-08T15:43:10.461Z,520.00
2018-09-08T15:44:10.415Z,484.00
2018-09-08T15:45:10.368Z,452.00
2018-09-08T15:46:10.321Z,444.00
2018-09-08T15:47:10.276Z,476.00
2018-09-08T15:48:10.227Z,480.00
2018-09-08T15:49:10.186Z,472.00
2018-09-08T15:50:10.135Z,444.00
2018-09-08T15:51:10.089Z,444.00
2018-09-08T15:52:10.043Z,452.00
2018-09-08T15:53:09.994Z,472.00
2018-09-08T15:54:09.952Z,516.00
2018-09-08T15:55:09.901Z,532.00
2018-09-08T15:56:09.860Z,544.00
2018-09-08T15:57:09.808Z,528.00
2018-09-08T15:58:09.826Z,516.00
2018-09-08T15:59:09.715Z,520.00
2018-09-08T16:00:09.673Z,488.00
2018-09-08T16:01:09.626Z,464.00
2018-09-08T16:02:09.577Z,452.00
2018-09-08T16:03:09.548Z,432.00
2018-09-08T16:04:09.481Z,416.00
2018-09-08T16:05:09.435Z,440.00
2018-09-08T16:06:09.389Z,444.00
2018-09-08T16:07:09.341Z,440.00
2018-09-08T16:08:09.297Z,444.00
2018-09-08T16:09:09.250Z,416.00
2018-09-08T16:10:09.201Z,404.00
2018-09-08T16:11:09.157Z,392.00
2018-09-08T16:12:09.110Z,388.00
2018-09-08T16:13:09.062Z,392.00
2018-09-08T16:14:09.016Z,404.00
2018-09-08T16:15:08.969Z,412.00
2018-09-08T16:16:08.923Z,412.00
2018-09-08T16:17:08.874Z,420.00
2018-09-08T16:18:08.828Z,428.00
2018-09-08T16:19:08.782Z,448.00
2018-09-08T16:20:08.739Z,460.00
2018-09-08T16:21:08.688Z,456.00
2018-09-08T16:22:08.644Z,444.00
2018-09-08T16:23:08.595Z,444.00
2018-09-08T16:24:08.554Z,448.00
2018-09-08T16:25:08.503Z,452.00
2018-09-08T16:26:08.455Z,448.00
2018-09-08T16:27:08.408Z,448.00
2018-09-08T16:28:08.361Z,456.00
2018-09-08T16:29:08.315Z,464.00
2018-09-08T16:30:08.272Z,472.00
2018-09-08T16:31:08.221Z,468.00
2018-09-08T16:32:08.176Z,464.00
2018-09-08T16:33:08.128Z,452.00
2018-09-08T16:34:08.080Z,444.00
2018-09-08T16:35:08.037Z,444.00
2018-09-08T16:36:07.994Z,440.00
2018-09-08T16:37:07.939Z,448.00
2018-09-08T16:38:07.894Z,444.00
2018-09-08T16:39:07.849Z,436.00
2018-09-08T16:40:07.813Z,412.00
2018-09-08T16:41:07.753Z,404.00
2018-09-08T16:42:07.711Z,400.00
2018-09-08T16:43:12.157Z,396.00
2018-09-08T16:44:07.626Z,388.00
2018-09-08T16:45:07.563Z,380.00
2018-09-08T16:46:07.518Z,360.00
2018-09-08T16:47:07.469Z,352.00
2018-09-08T16:48:07.423Z,340.00
2018-09-08T16:49:07.376Z,340.00
2018-09-08T16:50:07.333Z,320.00
2018-09-08T16:51:07.282Z,308.00
2018-09-08T16:52:07.308Z,304.00
2018-09-08T16:53:07.188Z,300.00
2018-09-08T16:54:07.140Z,296.00
2018-09-08T16:55:07.097Z,296.00
2018-09-08T16:56:07.046Z,292.00
2018-09-08T16:57:06.999Z,288.00
2018-09-08T16:58:06.992Z,284.00
2018-09-08T16:59:06.906Z,280.00
2018-09-08T17:00:06.858Z,268.00
2018-09-08T17:01:06.811Z,264.00
2018-09-08T17:02:06.765Z,264.00
2018-09-08T17:03:06.718Z,268.00
2018-09-08T17:04:06.674Z,264.00
2018-09-08T17:05:06.708Z,248.00
2018-09-08T17:06:06.576Z,236.00
2018-09-08T17:07:06.529Z,232.00
2018-09-08T17:08:06.482Z,224.00
2018-09-08T17:09:06.441Z,220.00
2018-09-08T17:10:06.386Z,220.00
2018-09-08T17:11:06.344Z,216.00
2018-09-08T17:12:06.294Z,216.00
2018-09-08T17:13:06.246Z,212.00
2018-09-08T17:14:06.200Z,212.00
2018-09-08T17:15:06.150Z,212.00
2018-09-08T17:16:06.113Z,208.00
2018-09-08T17:17:06.063Z,208.00
2018-09-08T17:18:06.009Z,200.00
2018-09-08T17:19:05.970Z,192.00
2018-09-08T17:20:05.914Z,188.00
2018-09-08T17:21:05.867Z,176.00
2018-09-08T17:22:05.828Z,172.00
2018-09-08T17:23:05.777Z,172.00
2018-09-08T17:24:05.725Z,176.00
2018-09-08T17:25:05.677Z,176.00
2018-09-08T17:26:05.631Z,180.00
2018-09-08T17:27:05.584Z,180.00
2018-09-08T17:28:05.535Z,172.00
2018-09-08T17:29:05.494Z,164.00
2018-09-08T17:30:05.445Z,160.00
2018-09-08T17:31:05.393Z,140.00
2018-09-08T17:32:05.345Z,132.00
2018-09-08T17:33:05.299Z,124.00
2018-09-08T17:34:05.312Z,112.00
2018-09-08T17:35:05.208Z,108.00
2018-09-08T17:36:05.156Z,96.00
2018-09-08T17:37:05.114Z,92.00
2018-09-08T17:38:05.063Z,84.00
2018-09-08T17:39:05.015Z,80.00
2018-09-08T17:40:04.970Z,72.00
2018-09-08T17:41:04.917Z,68.00
2018-09-08T17:42:04.872Z,64.00
2018-09-08T17:43:04.822Z,56.00
2018-09-08T17:44:04.775Z,52.00
2018-09-08T17:45:04.726Z,48.00
2018-09-08T17:46:04.679Z,44.00
2018-09-08T17:47:04.633Z,36.00
2018-09-08T17:48:04.583Z,36.00
2018-09-08T17:49:04.539Z,32.00
2018-09-08T17:50:04.487Z,28.00
2018-09-08T17:51:04.519Z,28.00
2018-09-08T17:52:04.438Z,28.00
2018-09-08T17:53:04.344Z,24.00
2018-09-08T17:54:04.298Z,20.00
2018-09-08T17:55:04.249Z,20.00
2018-09-08T17:56:04.202Z,16.00
2018-09-08T17:57:04.153Z,16.00
2018-09-08T17:58:04.105Z,16.00
2018-09-08T17:59:04.060Z,12.00
2018-09-08T18:00:04.010Z,12.00
2018-09-08T18:01:03.961Z,8.00
2018-09-08T18:02:03.915Z,4.00
2018-09-08T18:03:03.868Z,8.00
2018-09-08T18:04:03.826Z,4.00
2018-09-08T18:05:03.772Z,8.00
2018-09-08T18:06:03.726Z,4.00
2018-09-08T18:07:03.678Z,4.00
2018-09-08T18:08:03.626Z,4.00
2018-09-08T18:09:03.578Z,4.00
2018-09-08T18:10:03.532Z,4.00
2018-09-08T18:11:03.485Z,4.00
2018-09-08T18:12:03.434Z,4.00
2018-09-08T18:13:08.177Z,4.00
2018-09-08T18:14:03.338Z,4.00
2018-09-08T18:15:03.291Z,4.00
2018-09-08T18:16:03.246Z,4.00
2018-09-08T18:17:03.197Z,4.00
2018-09-08T18:18:03.144Z,4.00
2018-09-08T18:19:03.096Z,4.00
2018-09-08T18:20:03.047Z,4.00
2018-09-08T18:21:03.097Z,4.00
2018-09-08T18:22:02.952Z,4.00
2018-09-08T18:23:02.918Z,4.00
2018-09-08T18:24:02.855Z,4.00
2018-09-08T18:25:02.805Z,4.00
2018-09-08T18:26:02.758Z,4.00
2018-09-08T18:27:02.709Z,4.00
2018-09-08T18:28:02.661Z,4.00
2018-09-08T18:29:02.613Z,4.00
2018-09-08T18:30:02.564Z,4.00
2018-09-08T18:31:02.515Z,4.00
2018-09-08T18:32:02.467Z,4.00
2018-09-08T18:33:02.421Z,4.00
2018-09-08T18:34:03.185Z,4.00
2018-09-08T18:35:02.321Z,4.00
2018-09-08T18:36:02.274Z,4.00
2018-09-08T18:37:02.297Z,4.00
2018-09-08T18:38:02.177Z,4.00
2018-09-08T18:39:02.129Z,4.00
2018-09-08T18:40:02.080Z,4.00
2018-09-08T18:41:02.030Z,4.00
2018-09-08T18:42:01.984Z,4.00
2018-09-08T18:43:01.931Z,4.00
2018-09-08T18:44:01.885Z,4.00
2018-09-08T18:45:01.857Z,4.00
2018-09-08T18:46:01.787Z,4.00
2018-09-08T18:47:01.746Z,4.00
2018-09-08T18:48:01.690Z,4.00
2018-09-08T18:49:01.639Z,4.00
2018-09-08T18:50:01.595Z,4.00
2018-09-08T18:51:01.542Z,4.00
2018-09-08T18:52:01.497Z,4.00
2018-09-08T18:53:01.443Z,4.00
2018-09-08T18:54:01.408Z,4.00
2018-09-08T18:55:01.347Z,4.00
2018-09-08T18:56:01.299Z,4.00
2018-09-08T18:57:01.248Z,4.00
2018-09-08T18:58:01.201Z,4.00
2018-09-08T18:59:01.154Z,4.00
2018-09-08T19:00:01.107Z,4.00
2018-09-08T19:01:01.052Z,4.00
2018-09-08T19:02:01.004Z,4.00
2018-09-08T19:03:00.955Z,4.00
2018-09-08T19:04:00.907Z,4.00
2018-09-08T19:05:00.858Z,4.00
2018-09-08T19:06:00.808Z,4.00
2018-09-08T19:07:00.760Z,4.00
2018-09-08T19:08:00.710Z,4.00
2018-09-08T19:09:00.660Z,4.00
2018-09-08T19:10:00.610Z,4.00
2018-09-08T19:11:00.570Z,4.00
2018-09-08T19:12:00.513Z,4.00
2018-09-08T19:13:00.462Z,4.00
2018-09-08T19:14:00.415Z,4.00
2018-09-08T19:15:00.366Z,4.00
2018-09-08T19:16:00.319Z,4.00
2018-09-08T19:17:00.266Z,4.00
2018-09-08T19:18:00.222Z,4.00
2018-09-08T19:19:00.168Z,4.00
2018-09-08T19:20:00.140Z,4.00
2018-09-08T19:21:00.069Z,4.00
2018-09-08T19:22:00.021Z,4.00
2018-09-08T19:22:59.981Z,4.00
2018-09-08T19:23:59.921Z,4.00
2018-09-08T19:24:59.874Z,4.00
2018-09-08T19:25:59.822Z,4.00
2018-09-08T19:26:59.772Z,4.00
2018-09-08T19:27:59.726Z,4.00
2018-09-08T19:28:59.673Z,4.00
2018-09-08T19:29:59.626Z,4.00
2018-09-08T19:30:59.578Z,4.00
2018-09-08T19:31:59.526Z,4.00
2018-09-08T19:32:59.476Z,4.00
2018-09-08T19:33:59.428Z,4.00
2018-09-08T19:34:59.377Z,4.00
2018-09-08T19:35:59.330Z,4.00
2018-09-08T19:36:59.279Z,4.00
2018-09-08T19:37:59.231Z,4.00
2018-09-08T19:38:59.180Z,4.00
2018-09-08T19:39:59.129Z,4.00
2018-09-08T19:40:59.078Z,4.00
2018-09-08T19:41:59.029Z,4.00
2018-09-08T19:42:58.981Z,4.00
2018-09-08T19:43:58.935Z,4.00
2018-09-08T19:44:58.884Z,4.00
2018-09-08T19:45:58.832Z,4.00
2018-09-08T19:46:58.789Z,4.00
2018-09-08T19:47:58.733Z,4.00
2018-09-08T19:48:58.691Z,4.00
2018-09-08T19:49:58.635Z,4.00
2018-09-08T19:50:58.584Z,4.00
2018-09-08T19:51:58.536Z,4.00
2018-09-08T19:52:58.486Z,4.00
2018-09-08T19:53:58.435Z,4.00
2018-09-08T19:54:58.442Z,4.00
2018-09-08T19:55:58.335Z,4.00
2018-09-08T19:56:58.287Z,4.00
2018-09-08T19:57:58.244Z,4.00
2018-09-08T19:58:58.191Z,4.00
2018-09-08T19:59:58.137Z,4.00
2018-09-08T20:00:58.088Z,4.00
2018-09-08T20:01:58.079Z,4.00
2018-09-08T20:02:57.985Z,4.00
2018-09-08T20:03:57.939Z,4.00
2018-09-08T20:04:57.903Z,4.00
2018-09-08T20:05:57.843Z,4.00
2018-09-08T20:06:57.786Z,4.00
2018-09-08T20:07:57.743Z,4.00
2018-09-08T20:08:57.692Z,4.00
2018-09-08T20:09:57.636Z,4.00
2018-09-08T20:10:57.589Z,4.00
2018-09-08T20:11:57.537Z,4.00
2018-09-08T20:12:57.493Z,4.00
2018-09-08T20:13:57.436Z,4.00
2018-09-08T20:14:57.387Z,4.00
2018-09-08T20:15:57.342Z,4.00
2018-09-08T20:16:57.289Z,4.00
2018-09-08T20:17:57.237Z,4.00
2018-09-08T20:18:57.187Z,4.00
2018-09-08T20:19:57.138Z,4.00
2018-09-08T20:20:57.085Z,4.00
2018-09-08T20:21:57.036Z,4.00
2018-09-08T20:22:56.985Z,4.00
2018-09-08T20:23:56.935Z,4.00
2018-09-08T20:24:56.888Z,4.00
2018-09-08T20:25:56.835Z,4.00
2018-09-08T20:26:56.850Z,4.00
2018-09-08T20:27:56.739Z,4.00
2018-09-08T20:28:56.717Z,4.00
2018-09-08T20:29:56.634Z,4.00
2018-09-08T20:30:56.589Z,4.00
2018-09-08T20:31:56.534Z,4.00
2018-09-08T20:32:56.484Z,4.00
2018-09-08T20:33:56.437Z,4.00
2018-09-08T20:34:56.447Z,4.00
2018-09-08T20:35:56.339Z,4.00
2018-09-08T20:36:56.283Z,4.00
2018-09-08T20:37:56.233Z,4.00
2018-09-08T20:38:56.183Z,4.00
2018-09-08T20:39:56.132Z,4.00
2018-09-08T20:40:56.083Z,4.00
2018-09-08T20:41:56.036Z,4.00
2018-09-08T20:42:55.982Z,4.00
2018-09-08T20:43:55.931Z,4.00
2018-09-08T20:44:55.880Z,4.00
2018-09-08T20:45:55.830Z,4.00
2018-09-08T20:46:55.781Z,4.00
2018-09-08T20:47:55.736Z,4.00
2018-09-08T20:48:55.679Z,4.00
2018-09-08T20:49:55.629Z,4.00
2018-09-08T20:50:55.582Z,4.00
2018-09-08T20:51:55.530Z,4.00
2018-09-08T20:52:55.479Z,4.00
2018-09-08T20:53:55.427Z,4.00
2018-09-08T20:54:55.386Z,4.00
2018-09-08T20:55:55.328Z,4.00
2018-09-08T20:56:55.275Z,4.00
2018-09-08T20:57:55.227Z,4.00
2018-09-08T20:58:55.180Z,4.00
2018-09-08T20:59:55.126Z,4.00
2018-09-08T21:00:55.074Z,4.00
2018-09-08T21:01:55.023Z,4.00
2018-09-08T21:02:54.974Z,4.00
2018-09-08T21:03:54.923Z,4.00
2018-09-08T21:04:54.871Z,4.00
2018-09-08T21:05:54.826Z,4.00
2018-09-08T21:06:54.771Z,4.00
2018-09-08T21:07:54.720Z,4.00
2018-09-08T21:08:54.669Z,4.00
2018-09-08T21:09:54.620Z,4.00
2018-09-08T21:10:54.569Z,4.00
2018-09-08T21:11:54.518Z,4.00
2018-09-08T21:12:54.528Z,4.00
2018-09-08T21:13:54.416Z,4.00
2018-09-08T21:14:54.367Z,4.00
2018-09-08T21:15:54.317Z,4.00
2018-09-08T21:16:54.265Z,4.00
2018-09-08T21:17:54.214Z,4.00
2018-09-08T21:18:54.170Z,4.00
2018-09-08T21:19:54.151Z,4.00
2018-09-08T21:20:54.065Z,4.00
2018-09-08T21:21:54.011Z,4.00
2018-09-08T21:22:53.960Z,4.00
2018-09-08T21:23:53.911Z,4.00
2018-09-08T21:24:53.917Z,4.00
2018-09-08T21:25:53.814Z,4.00
2018-09-08T21:26:53.769Z,4.00
2018-09-08T21:27:53.815Z,4.00
2018-09-08T21:28:53.657Z,4.00
2018-09-08T21:29:53.605Z,4.00
2018-09-08T21:30:53.557Z,4.00
2018-09-08T21:31:53.504Z,4.00
2018-09-08T21:32:53.453Z,4.00
2018-09-08T21:33:53.405Z,4.00
2018-09-08T21:34:53.351Z,4.00
2018-09-08T21:35:53.301Z,4.00
2018-09-08T21:36:53.251Z,4.00
2018-09-08T21:37:53.198Z,4.00
2018-09-08T21:38:53.147Z,4.00
2018-09-08T21:39:53.098Z,4.00
2018-09-08T21:40:53.045Z,4.00
2018-09-08T21:41:53.057Z,4.00
2018-09-08T21:42:52.944Z,4.00
2018-09-08T21:43:52.892Z,4.00
2018-09-08T21:44:52.841Z,4.00
2018-09-08T21:45:52.790Z,4.00
2018-09-08T21:46:52.740Z,4.00
2018-09-08T21:47:52.689Z,4.00
2018-09-08T21:48:52.640Z,4.00
2018-09-08T21:49:52.586Z,4.00
2018-09-08T21:50:52.536Z,4.00
2018-09-08T21:51:52.485Z,4.00
2018-09-08T21:52:52.437Z,4.00
2018-09-08T21:53:52.386Z,4.00
2018-09-08T21:54:52.333Z,4.00
2018-09-08T21:55:52.281Z,4.00
2018-09-08T21:56:52.240Z,4.00
2018-09-08T21:57:52.186Z,4.00
2018-09-08T21:58:52.132Z,4.00
2018-09-08T21:59:52.079Z,4.00
2018-09-08T22:00:52.025Z,4.00
2018-09-08T22:01:51.973Z,4.00
2018-09-08T22:02:51.923Z,4.00
2018-09-08T22:03:51.872Z,4.00
2018-09-08T22:04:51.822Z,4.00
2018-09-08T22:05:51.771Z,4.00
2018-09-08T22:06:51.720Z,4.00
2018-09-08T22:07:51.670Z,4.00
2018-09-08T22:08:51.616Z,4.00
2018-09-08T22:09:51.634Z,4.00
2018-09-08T22:10:51.514Z,4.00
2018-09-08T22:11:51.464Z,4.00
2018-09-08T22:12:51.414Z,4.00
2018-09-08T22:13:51.364Z,4.00
2018-09-08T22:14:51.308Z,4.00
2018-09-08T22:15:51.291Z,4.00
2018-09-08T22:16:51.208Z,4.00
2018-09-08T22:17:51.155Z,4.00
2018-09-08T22:18:51.104Z,4.00
2018-09-08T22:19:51.053Z,4.00
2018-09-08T22:20:51.001Z,4.00
2018-09-08T22:21:50.951Z,4.00
2018-09-08T22:22:50.899Z,4.00
2018-09-08T22:23:50.851Z,4.00
2018-09-08T22:24:50.796Z,4.00
2018-09-08T22:25:50.748Z,4.00
2018-09-08T22:26:50.695Z,4.00
2018-09-08T22:27:50.642Z,4.00
2018-09-08T22:28:50.596Z,4.00
2018-09-08T22:29:50.545Z,4.00
2018-09-08T22:30:50.488Z,4.00
2018-09-08T22:31:50.436Z,4.00
2018-09-08T22:32:50.444Z,4.00
2018-09-08T22:33:50.333Z,4.00
2018-09-08T22:34:50.283Z,4.00
2018-09-08T22:35:50.232Z,4.00
2018-09-08T22:36:50.178Z,4.00
2018-09-08T22:37:50.128Z,4.00
2018-09-08T22:38:50.113Z,4.00
2018-09-08T22:39:50.027Z,4.00
2018-09-08T22:40:49.974Z,4.00
2018-09-08T22:41:49.921Z,4.00
2018-09-08T22:42:49.872Z,4.00
2018-09-08T22:43:49.821Z,4.00
2018-09-08T22:44:49.767Z,4.00
2018-09-08T22:45:49.719Z,4.00
2018-09-08T22:46:49.688Z,4.00
2018-09-08T22:47:49.617Z,4.00
2018-09-08T22:48:49.562Z,4.00
2018-09-08T22:49:49.513Z,4.00
2018-09-08T22:50:49.460Z,4.00
2018-09-08T22:51:49.408Z,4.00
2018-09-08T22:52:49.357Z,4.00
2018-09-08T22:53:49.310Z,4.00
2018-09-08T22:54:49.256Z,4.00
2018-09-08T22:55:49.201Z,4.00
2018-09-08T22:56:49.158Z,4.00
2018-09-08T22:57:49.097Z,4.00
2018-09-08T22:58:49.057Z,4.00
2018-09-08T22:59:48.995Z,4.00
2018-09-08T23:00:48.947Z,4.00
2018-09-08T23:01:48.891Z,4.00
2018-09-08T23:02:48.841Z,4.00
2018-09-08T23:03:48.789Z,4.00
2018-09-08T23:04:48.738Z,4.00
2018-09-08T23:05:48.687Z,4.00
2018-09-08T23:06:48.633Z,4.00
2018-09-08T23:07:48.584Z,4.00
2018-09-08T23:08:48.530Z,4.00
2018-09-08T23:09:48.478Z,4.00
2018-09-08T23:10:48.427Z,4.00
2018-09-08T23:11:48.375Z,4.00
2018-09-08T23:12:48.323Z,4.00
2018-09-08T23:13:48.271Z,4.00
2018-09-08T23:14:48.220Z,4.00
2018-09-08T23:15:48.167Z,4.00
2018-09-08T23:16:48.116Z,4.00
2018-09-08T23:17:48.065Z,4.00
2018-09-08T23:18:48.012Z,4.00